sensor_id;sensor_type;location;lat;lon;timestamp;temperature;humidity
7030;DHT22;3556;53.500;10.176;2023-06-10T00:00:13;14.70;99.90
7030;DHT22;3556;53.500;10.176;2023-06-10T00:02:40;14.60;99.90
7030;DHT22;3556;53.500;10.176;2023-06-10T00:05:06;14.60;99.90
7030;DHT22;3556;53.500;10.176;2023-06-10T00:07:33;14.50;99.90
7030;DHT22;3556;53.500;10.176;2023-06-10T00:09:59;14.50;99.90
7030;DHT22;3556;53.500;10.176;2023-06-10T00:12:25;14.40;99.90
7030;DHT22;3556;53.500;10.176;2023-06-10T00:14:51;14.40;99.90
7030;DHT22;3556;53.500;10.176;2023-06-10T00:17:19;14.40;99.90
7030;DHT22;3556;53.500;10.176;2023-06-10T00:19:44;14.30;99.90
7030;DHT22;3556;53.500;10.176;2023-06-10T00:22:12;14.30;99.90
7030;DHT22;3556;53.500;10.176;2023-06-10T00:24:38;14.30;99.90
7030;DHT22;3556;53.500;10.176;2023-06-10T00:27:04;14.20;99.90
7030;DHT22;3556;53.500;10.176;2023-06-10T00:29:32;14.20;99.90
7030;DHT22;3556;53.500;10.176;2023-06-10T00:31:58;14.20;99.90
7030;DHT22;3556;53.500;10.176;2023-06-10T00:34:24;14.10;99.90
7030;DHT22;3556;53.500;10.176;2023-06-10T00:36:50;14.10;99.90
7030;DHT22;3556;53.500;10.176;2023-06-10T00:39:15;14.10;99.90
7030;DHT22;3556;53.500;10.176;2023-06-10T00:41:42;14.10;99.90
7030;DHT22;3556;53.500;10.176;2023-06-10T00:44:08;14.00;99.90
7030;DHT22;3556;53.500;10.176;2023-06-10T00:46:34;13.90;99.90
7030;DHT22;3556;53.500;10.176;2023-06-10T00:49:00;13.90;99.90
7030;DHT22;3556;53.500;10.176;2023-06-10T00:51:26;13.80;99.90
7030;DHT22;3556;53.500;10.176;2023-06-10T00:53:53;13.80;99.90
7030;DHT22;3556;53.500;10.176;2023-06-10T00:56:19;13.80;99.90
7030;DHT22;3556;53.500;10.176;2023-06-10T00:58:45;13.70;99.90
7030;DHT22;3556;53.500;10.176;2023-06-10T01:01:11;13.70;99.90
7030;DHT22;3556;53.500;10.176;2023-06-10T01:03:39;13.60;99.90
7030;DHT22;3556;53.500;10.176;2023-06-10T01:06:31;13.60;99.90
7030;DHT22;3556;53.500;10.176;2023-06-10T01:12:12;13.60;99.90
7030;DHT22;3556;53.500;10.176;2023-06-10T01:14:40;13.60;99.90
7030;DHT22;3556;53.500;10.176;2023-06-10T01:17:10;13.50;99.90
7030;DHT22;3556;53.500;10.176;2023-06-10T01:19:36;13.50;99.90
7030;DHT22;3556;53.500;10.176;2023-06-10T01:22:03;13.40;99.90
7030;DHT22;3556;53.500;10.176;2023-06-10T01:24:29;13.40;99.90
7030;DHT22;3556;53.500;10.176;2023-06-10T01:27:00;13.30;99.90
7030;DHT22;3556;53.500;10.176;2023-06-10T01:29:33;13.30;99.90
7030;DHT22;3556;53.500;10.176;2023-06-10T01:32:08;13.30;99.90
7030;DHT22;3556;53.500;10.176;2023-06-10T01:34:37;13.20;99.90
7030;DHT22;3556;53.500;10.176;2023-06-10T01:37:04;13.20;99.90
7030;DHT22;3556;53.500;10.176;2023-06-10T01:39:32;13.10;99.90
7030;DHT22;3556;53.500;10.176;2023-06-10T01:41:58;13.10;99.90
7030;DHT22;3556;53.500;10.176;2023-06-10T01:44:23;13.10;99.90
7030;DHT22;3556;53.500;10.176;2023-06-10T01:46:50;13.00;99.90
7030;DHT22;3556;53.500;10.176;2023-06-10T01:49:15;13.00;99.90
7030;DHT22;3556;53.500;10.176;2023-06-10T01:51:41;13.00;99.90
7030;DHT22;3556;53.500;10.176;2023-06-10T01:54:07;13.00;99.90
7030;DHT22;3556;53.500;10.176;2023-06-10T01:56:33;12.90;99.90
7030;DHT22;3556;53.500;10.176;2023-06-10T01:58:59;12.90;99.90
7030;DHT22;3556;53.500;10.176;2023-06-10T02:01:25;12.80;99.90
7030;DHT22;3556;53.500;10.176;2023-06-10T02:03:51;12.80;99.90
7030;DHT22;3556;53.500;10.176;2023-06-10T02:06:17;12.80;99.90
7030;DHT22;3556;53.500;10.176;2023-06-10T02:08:42;12.70;99.90
7030;DHT22;3556;53.500;10.176;2023-06-10T02:11:08;12.70;99.90
7030;DHT22;3556;53.500;10.176;2023-06-10T02:13:34;12.60;99.90
7030;DHT22;3556;53.500;10.176;2023-06-10T02:16:00;12.60;99.90
7030;DHT22;3556;53.500;10.176;2023-06-10T02:18:26;12.60;99.90
7030;DHT22;3556;53.500;10.176;2023-06-10T02:20:53;12.50;99.90
7030;DHT22;3556;53.500;10.176;2023-06-10T02:23:19;12.50;99.90
7030;DHT22;3556;53.500;10.176;2023-06-10T02:25:45;12.50;99.90
7030;DHT22;3556;53.500;10.176;2023-06-10T02:28:13;12.40;99.90
7030;DHT22;3556;53.500;10.176;2023-06-10T02:30:40;12.40;99.90
7030;DHT22;3556;53.500;10.176;2023-06-10T02:33:06;12.40;99.90
7030;DHT22;3556;53.500;10.176;2023-06-10T02:35:36;12.30;99.90
7030;DHT22;3556;53.500;10.176;2023-06-10T02:38:02;12.30;99.90
7030;DHT22;3556;53.500;10.176;2023-06-10T02:40:28;12.20;99.90
7030;DHT22;3556;53.500;10.176;2023-06-10T02:42:53;12.20;99.90
7030;DHT22;3556;53.500;10.176;2023-06-10T02:45:19;12.20;99.90
7030;DHT22;3556;53.500;10.176;2023-06-10T02:47:45;12.20;99.90
7030;DHT22;3556;53.500;10.176;2023-06-10T02:50:11;12.20;99.90
7030;DHT22;3556;53.500;10.176;2023-06-10T02:52:37;12.10;99.90
7030;DHT22;3556;53.500;10.176;2023-06-10T02:55:03;12.10;99.90
7030;DHT22;3556;53.500;10.176;2023-06-10T02:57:28;12.10;99.90
7030;DHT22;3556;53.500;10.176;2023-06-10T02:59:54;12.10;99.90
7030;DHT22;3556;53.500;10.176;2023-06-10T03:02:20;12.00;99.90
7030;DHT22;3556;53.500;10.176;2023-06-10T03:04:45;12.10;99.90
7030;DHT22;3556;53.500;10.176;2023-06-10T03:07:11;12.10;99.90
7030;DHT22;3556;53.500;10.176;2023-06-10T03:09:37;12.00;99.90
7030;DHT22;3556;53.500;10.176;2023-06-10T03:12:04;12.00;99.90
7030;DHT22;3556;53.500;10.176;2023-06-10T03:14:30;11.90;99.90
7030;DHT22;3556;53.500;10.176;2023-06-10T03:16:55;11.90;99.90
7030;DHT22;3556;53.500;10.176;2023-06-10T03:19:21;11.90;99.90
7030;DHT22;3556;53.500;10.176;2023-06-10T03:21:50;11.90;99.90
7030;DHT22;3556;53.500;10.176;2023-06-10T03:24:20;11.90;99.90
7030;DHT22;3556;53.500;10.176;2023-06-10T03:26:45;11.90;99.90
7030;DHT22;3556;53.500;10.176;2023-06-10T03:29:11;11.90;99.90
7030;DHT22;3556;53.500;10.176;2023-06-10T03:31:37;11.80;99.90
7030;DHT22;3556;53.500;10.176;2023-06-10T03:34:04;11.80;99.90
7030;DHT22;3556;53.500;10.176;2023-06-10T03:36:30;11.80;99.90
7030;DHT22;3556;53.500;10.176;2023-06-10T03:38:55;11.80;99.90
7030;DHT22;3556;53.500;10.176;2023-06-10T03:41:22;11.80;99.90
7030;DHT22;3556;53.500;10.176;2023-06-10T03:43:48;11.80;99.90
7030;DHT22;3556;53.500;10.176;2023-06-10T03:46:14;11.80;99.90
7030;DHT22;3556;53.500;10.176;2023-06-10T03:48:40;11.80;99.90
7030;DHT22;3556;53.500;10.176;2023-06-10T03:51:05;11.80;99.90
7030;DHT22;3556;53.500;10.176;2023-06-10T03:53:31;11.80;99.90
7030;DHT22;3556;53.500;10.176;2023-06-10T03:55:57;11.80;99.90
7030;DHT22;3556;53.500;10.176;2023-06-10T03:58:23;11.80;99.90
7030;DHT22;3556;53.500;10.176;2023-06-10T04:00:48;11.80;99.90
7030;DHT22;3556;53.500;10.176;2023-06-10T04:03:15;11.80;99.90
7030;DHT22;3556;53.500;10.176;2023-06-10T04:05:41;11.90;99.90
7030;DHT22;3556;53.500;10.176;2023-06-10T04:08:07;12.00;99.90
7030;DHT22;3556;53.500;10.176;2023-06-10T04:10:33;12.00;99.90
7030;DHT22;3556;53.500;10.176;2023-06-10T04:12:58;12.00;99.90
7030;DHT22;3556;53.500;10.176;2023-06-10T04:15:25;12.00;99.90
7030;DHT22;3556;53.500;10.176;2023-06-10T04:17:50;12.10;99.90
7030;DHT22;3556;53.500;10.176;2023-06-10T04:20:16;12.20;99.90
7030;DHT22;3556;53.500;10.176;2023-06-10T04:22:42;12.20;99.90
7030;DHT22;3556;53.500;10.176;2023-06-10T04:25:09;12.30;99.90
7030;DHT22;3556;53.500;10.176;2023-06-10T04:27:35;12.40;99.90
7030;DHT22;3556;53.500;10.176;2023-06-10T04:30:01;12.40;99.90
7030;DHT22;3556;53.500;10.176;2023-06-10T04:32:26;12.50;99.90
7030;DHT22;3556;53.500;10.176;2023-06-10T04:34:52;12.50;99.90
7030;DHT22;3556;53.500;10.176;2023-06-10T04:37:17;12.60;99.90
7030;DHT22;3556;53.500;10.176;2023-06-10T04:39:43;12.70;99.90
7030;DHT22;3556;53.500;10.176;2023-06-10T04:42:09;12.80;99.90
7030;DHT22;3556;53.500;10.176;2023-06-10T04:44:34;12.90;99.90
7030;DHT22;3556;53.500;10.176;2023-06-10T04:47:00;12.90;99.90
7030;DHT22;3556;53.500;10.176;2023-06-10T04:49:26;13.00;99.90
7030;DHT22;3556;53.500;10.176;2023-06-10T04:51:52;13.10;99.90
7030;DHT22;3556;53.500;10.176;2023-06-10T04:54:17;13.20;99.90
7030;DHT22;3556;53.500;10.176;2023-06-10T04:56:43;13.30;99.90
7030;DHT22;3556;53.500;10.176;2023-06-10T04:59:08;13.40;99.90
7030;DHT22;3556;53.500;10.176;2023-06-10T05:01:34;13.50;99.90
7030;DHT22;3556;53.500;10.176;2023-06-10T05:04:00;13.60;99.90
7030;DHT22;3556;53.500;10.176;2023-06-10T05:06:25;13.70;99.90
7030;DHT22;3556;53.500;10.176;2023-06-10T05:08:51;13.80;99.90
7030;DHT22;3556;53.500;10.176;2023-06-10T05:11:16;13.90;99.90
7030;DHT22;3556;53.500;10.176;2023-06-10T05:13:42;13.90;99.90
7030;DHT22;3556;53.500;10.176;2023-06-10T05:16:09;14.00;99.90
7030;DHT22;3556;53.500;10.176;2023-06-10T05:18:35;14.10;99.90
7030;DHT22;3556;53.500;10.176;2023-06-10T05:21:01;14.20;99.90
7030;DHT22;3556;53.500;10.176;2023-06-10T05:23:27;14.30;99.90
7030;DHT22;3556;53.500;10.176;2023-06-10T05:25:53;14.40;99.90
7030;DHT22;3556;53.500;10.176;2023-06-10T05:28:19;14.50;99.90
7030;DHT22;3556;53.500;10.176;2023-06-10T05:30:45;14.50;99.90
7030;DHT22;3556;53.500;10.176;2023-06-10T05:33:11;14.70;99.90
7030;DHT22;3556;53.500;10.176;2023-06-10T05:35:37;14.70;99.90
7030;DHT22;3556;53.500;10.176;2023-06-10T05:38:03;14.90;99.90
7030;DHT22;3556;53.500;10.176;2023-06-10T05:40:28;14.90;99.90
7030;DHT22;3556;53.500;10.176;2023-06-10T05:42:54;15.00;99.90
7030;DHT22;3556;53.500;10.176;2023-06-10T05:45:20;15.10;99.90
7030;DHT22;3556;53.500;10.176;2023-06-10T05:47:46;15.20;99.90
7030;DHT22;3556;53.500;10.176;2023-06-10T05:50:11;15.30;99.90
7030;DHT22;3556;53.500;10.176;2023-06-10T05:52:37;15.40;99.90
7030;DHT22;3556;53.500;10.176;2023-06-10T05:55:05;15.50;99.90
7030;DHT22;3556;53.500;10.176;2023-06-10T05:57:31;15.50;99.90
7030;DHT22;3556;53.500;10.176;2023-06-10T05:59:57;15.60;99.90
7030;DHT22;3556;53.500;10.176;2023-06-10T06:02:23;15.70;99.90
7030;DHT22;3556;53.500;10.176;2023-06-10T06:04:48;15.90;99.90
7030;DHT22;3556;53.500;10.176;2023-06-10T06:07:14;16.00;99.90
7030;DHT22;3556;53.500;10.176;2023-06-10T06:09:40;16.00;99.90
7030;DHT22;3556;53.500;10.176;2023-06-10T06:12:06;16.20;99.90
7030;DHT22;3556;53.500;10.176;2023-06-10T06:14:36;16.30;99.90
7030;DHT22;3556;53.500;10.176;2023-06-10T06:17:02;16.40;99.90
7030;DHT22;3556;53.500;10.176;2023-06-10T06:19:27;16.50;99.90
7030;DHT22;3556;53.500;10.176;2023-06-10T06:21:53;16.50;99.90
7030;DHT22;3556;53.500;10.176;2023-06-10T06:24:18;16.60;99.90
7030;DHT22;3556;53.500;10.176;2023-06-10T06:26:44;16.70;99.90
7030;DHT22;3556;53.500;10.176;2023-06-10T06:29:10;16.70;99.90
7030;DHT22;3556;53.500;10.176;2023-06-10T06:31:36;16.80;99.90
7030;DHT22;3556;53.500;10.176;2023-06-10T06:34:02;16.80;99.90
7030;DHT22;3556;53.500;10.176;2023-06-10T06:36:27;16.90;99.90
7030;DHT22;3556;53.500;10.176;2023-06-10T06:38:53;17.00;99.90
7030;DHT22;3556;53.500;10.176;2023-06-10T06:41:18;17.10;99.90
7030;DHT22;3556;53.500;10.176;2023-06-10T06:43:44;17.20;99.90
7030;DHT22;3556;53.500;10.176;2023-06-10T06:46:10;17.40;99.90
7030;DHT22;3556;53.500;10.176;2023-06-10T06:48:36;17.50;99.90
7030;DHT22;3556;53.500;10.176;2023-06-10T06:51:01;17.60;99.90
7030;DHT22;3556;53.500;10.176;2023-06-10T06:53:27;17.80;99.90
7030;DHT22;3556;53.500;10.176;2023-06-10T06:55:53;17.80;99.90
7030;DHT22;3556;53.500;10.176;2023-06-10T06:58:18;17.90;99.90
7030;DHT22;3556;53.500;10.176;2023-06-10T07:00:44;18.00;99.90
7030;DHT22;3556;53.500;10.176;2023-06-10T07:03:10;18.10;99.90
7030;DHT22;3556;53.500;10.176;2023-06-10T07:05:35;18.10;99.90
7030;DHT22;3556;53.500;10.176;2023-06-10T07:08:01;18.20;99.90
7030;DHT22;3556;53.500;10.176;2023-06-10T07:10:33;18.30;99.90
7030;DHT22;3556;53.500;10.176;2023-06-10T07:12:58;18.30;99.90
7030;DHT22;3556;53.500;10.176;2023-06-10T07:15:24;18.40;99.90
7030;DHT22;3556;53.500;10.176;2023-06-10T07:17:49;18.40;99.90
7030;DHT22;3556;53.500;10.176;2023-06-10T07:20:15;18.50;99.90
7030;DHT22;3556;53.500;10.176;2023-06-10T07:22:42;18.60;99.90
7030;DHT22;3556;53.500;10.176;2023-06-10T07:25:08;18.80;99.90
7030;DHT22;3556;53.500;10.176;2023-06-10T07:27:33;18.80;99.90
7030;DHT22;3556;53.500;10.176;2023-06-10T07:30:01;18.90;99.90
7030;DHT22;3556;53.500;10.176;2023-06-10T07:32:27;19.00;99.90
7030;DHT22;3556;53.500;10.176;2023-06-10T07:34:53;19.10;99.90
7030;DHT22;3556;53.500;10.176;2023-06-10T07:37:18;19.20;99.90
7030;DHT22;3556;53.500;10.176;2023-06-10T07:39:45;19.30;99.90
7030;DHT22;3556;53.500;10.176;2023-06-10T07:42:10;19.40;99.90
7030;DHT22;3556;53.500;10.176;2023-06-10T07:44:36;19.50;99.90
7030;DHT22;3556;53.500;10.176;2023-06-10T07:47:02;19.60;99.90
7030;DHT22;3556;53.500;10.176;2023-06-10T07:49:27;19.70;99.90
7030;DHT22;3556;53.500;10.176;2023-06-10T07:51:54;19.80;99.90
7030;DHT22;3556;53.500;10.176;2023-06-10T07:54:21;19.90;99.90
7030;DHT22;3556;53.500;10.176;2023-06-10T07:56:46;20.00;99.90
7030;DHT22;3556;53.500;10.176;2023-06-10T07:59:13;20.20;99.90
7030;DHT22;3556;53.500;10.176;2023-06-10T08:01:39;20.30;99.90
7030;DHT22;3556;53.500;10.176;2023-06-10T08:04:06;20.30;99.90
7030;DHT22;3556;53.500;10.176;2023-06-10T08:06:31;20.40;99.90
7030;DHT22;3556;53.500;10.176;2023-06-10T08:08:57;20.50;99.90
7030;DHT22;3556;53.500;10.176;2023-06-10T08:11:23;20.50;99.90
7030;DHT22;3556;53.500;10.176;2023-06-10T08:13:48;20.60;99.90
7030;DHT22;3556;53.500;10.176;2023-06-10T08:16:14;20.70;99.90
7030;DHT22;3556;53.500;10.176;2023-06-10T08:18:40;20.70;99.90
7030;DHT22;3556;53.500;10.176;2023-06-10T08:21:06;20.80;99.90
7030;DHT22;3556;53.500;10.176;2023-06-10T08:23:31;20.90;99.90
7030;DHT22;3556;53.500;10.176;2023-06-10T08:25:57;21.10;99.90
7030;DHT22;3556;53.500;10.176;2023-06-10T08:28:23;21.20;99.90
7030;DHT22;3556;53.500;10.176;2023-06-10T08:30:49;21.20;99.90
7030;DHT22;3556;53.500;10.176;2023-06-10T08:33:14;21.30;99.90
7030;DHT22;3556;53.500;10.176;2023-06-10T08:35:40;21.40;99.90
7030;DHT22;3556;53.500;10.176;2023-06-10T08:38:06;21.50;99.90
7030;DHT22;3556;53.500;10.176;2023-06-10T08:40:33;21.50;99.90
7030;DHT22;3556;53.500;10.176;2023-06-10T08:43:08;21.60;99.90
7030;DHT22;3556;53.500;10.176;2023-06-10T08:45:36;21.70;99.90
7030;DHT22;3556;53.500;10.176;2023-06-10T08:48:06;21.80;99.90
7030;DHT22;3556;53.500;10.176;2023-06-10T08:50:34;21.90;99.90
7030;DHT22;3556;53.500;10.176;2023-06-10T08:53:02;22.00;99.90
7030;DHT22;3556;53.500;10.176;2023-06-10T08:55:32;22.10;99.90
7030;DHT22;3556;53.500;10.176;2023-06-10T08:58:01;22.20;99.90
7030;DHT22;3556;53.500;10.176;2023-06-10T09:00:28;22.30;99.90
7030;DHT22;3556;53.500;10.176;2023-06-10T09:02:56;22.30;99.90
7030;DHT22;3556;53.500;10.176;2023-06-10T09:05:22;22.50;99.90
7030;DHT22;3556;53.500;10.176;2023-06-10T09:07:48;22.50;99.90
7030;DHT22;3556;53.500;10.176;2023-06-10T09:10:15;22.60;99.90
7030;DHT22;3556;53.500;10.176;2023-06-10T09:12:41;22.60;99.90
7030;DHT22;3556;53.500;10.176;2023-06-10T09:15:07;22.70;99.90
7030;DHT22;3556;53.500;10.176;2023-06-10T09:17:33;22.80;99.90
7030;DHT22;3556;53.500;10.176;2023-06-10T09:20:01;22.90;99.90
7030;DHT22;3556;53.500;10.176;2023-06-10T09:22:28;23.10;99.90
7030;DHT22;3556;53.500;10.176;2023-06-10T09:25:07;23.20;99.90
7030;DHT22;3556;53.500;10.176;2023-06-10T09:27:47;23.20;99.90
7030;DHT22;3556;53.500;10.176;2023-06-10T09:30:33;23.30;99.90
7030;DHT22;3556;53.500;10.176;2023-06-10T09:33:02;23.50;99.90
7030;DHT22;3556;53.500;10.176;2023-06-10T09:35:30;23.60;99.90
7030;DHT22;3556;53.500;10.176;2023-06-10T09:37:58;23.70;99.90
7030;DHT22;3556;53.500;10.176;2023-06-10T09:40:24;23.80;99.90
7030;DHT22;3556;53.500;10.176;2023-06-10T09:43:00;24.00;99.90
7030;DHT22;3556;53.500;10.176;2023-06-10T09:45:32;24.10;99.90
7030;DHT22;3556;53.500;10.176;2023-06-10T09:47:58;24.20;99.90
7030;DHT22;3556;53.500;10.176;2023-06-10T09:50:23;24.30;99.90
7030;DHT22;3556;53.500;10.176;2023-06-10T09:52:50;24.40;99.90
7030;DHT22;3556;53.500;10.176;2023-06-10T09:55:16;24.50;99.90
7030;DHT22;3556;53.500;10.176;2023-06-10T09:57:43;24.60;99.70
7030;DHT22;3556;53.500;10.176;2023-06-10T10:00:13;24.70;99.50
7030;DHT22;3556;53.500;10.176;2023-06-10T10:02:50;24.80;99.20
7030;DHT22;3556;53.500;10.176;2023-06-10T10:05:18;24.90;99.20
7030;DHT22;3556;53.500;10.176;2023-06-10T10:07:44;25.00;98.50
7030;DHT22;3556;53.500;10.176;2023-06-10T10:10:10;25.10;98.30
7030;DHT22;3556;53.500;10.176;2023-06-10T10:12:38;25.20;98.40
7030;DHT22;3556;53.500;10.176;2023-06-10T10:15:07;25.30;98.10
7030;DHT22;3556;53.500;10.176;2023-06-10T10:17:34;25.50;98.20
7030;DHT22;3556;53.500;10.176;2023-06-10T10:20:04;25.60;97.70
7030;DHT22;3556;53.500;10.176;2023-06-10T10:22:37;25.80;98.30
7030;DHT22;3556;53.500;10.176;2023-06-10T10:30:07;26.20;96.60
7030;DHT22;3556;53.500;10.176;2023-06-10T10:32:40;26.30;96.90
7030;DHT22;3556;53.500;10.176;2023-06-10T10:35:09;26.40;96.40
7030;DHT22;3556;53.500;10.176;2023-06-10T10:37:38;26.50;95.80
7030;DHT22;3556;53.500;10.176;2023-06-10T10:40:06;26.70;95.20
7030;DHT22;3556;53.500;10.176;2023-06-10T10:42:33;26.70;96.00
7030;DHT22;3556;53.500;10.176;2023-06-10T10:45:00;26.80;95.70
7030;DHT22;3556;53.500;10.176;2023-06-10T10:47:27;27.00;95.90
7030;DHT22;3556;53.500;10.176;2023-06-10T10:49:56;27.00;95.50
7030;DHT22;3556;53.500;10.176;2023-06-10T10:52:27;27.20;94.80
7030;DHT22;3556;53.500;10.176;2023-06-10T10:54:53;27.40;95.20
7030;DHT22;3556;53.500;10.176;2023-06-10T10:57:23;27.40;94.30
7030;DHT22;3556;53.500;10.176;2023-06-10T11:02:36;27.70;94.40
7030;DHT22;3556;53.500;10.176;2023-06-10T11:05:05;27.90;94.00
7030;DHT22;3556;53.500;10.176;2023-06-10T11:07:32;28.10;93.70
7030;DHT22;3556;53.500;10.176;2023-06-10T11:12:24;28.40;92.70
7030;DHT22;3556;53.500;10.176;2023-06-10T11:14:56;28.50;92.20
7030;DHT22;3556;53.500;10.176;2023-06-10T11:17:21;28.60;92.30
7030;DHT22;3556;53.500;10.176;2023-06-10T11:19:47;28.70;91.70
7030;DHT22;3556;53.500;10.176;2023-06-10T11:22:17;28.80;92.20
7030;DHT22;3556;53.500;10.176;2023-06-10T11:24:51;28.90;91.40
7030;DHT22;3556;53.500;10.176;2023-06-10T11:32:33;29.30;90.80
7030;DHT22;3556;53.500;10.176;2023-06-10T11:35:02;29.40;91.10
7030;DHT22;3556;53.500;10.176;2023-06-10T11:37:28;29.60;90.30
7030;DHT22;3556;53.500;10.176;2023-06-10T11:39:55;29.80;90.30
7030;DHT22;3556;53.500;10.176;2023-06-10T11:42:24;30.00;88.20
7030;DHT22;3556;53.500;10.176;2023-06-10T11:44:51;30.10;87.50
7030;DHT22;3556;53.500;10.176;2023-06-10T11:47:20;30.20;87.20
7030;DHT22;3556;53.500;10.176;2023-06-10T11:49:51;30.20;86.30
7030;DHT22;3556;53.500;10.176;2023-06-10T11:52:27;30.40;86.00
7030;DHT22;3556;53.500;10.176;2023-06-10T11:54:54;30.50;85.60
7030;DHT22;3556;53.500;10.176;2023-06-10T11:57:20;30.60;84.40
7030;DHT22;3556;53.500;10.176;2023-06-10T11:59:46;30.70;84.10
7030;DHT22;3556;53.500;10.176;2023-06-10T12:02:16;30.80;82.80
7030;DHT22;3556;53.500;10.176;2023-06-10T12:04:41;30.80;83.00
7030;DHT22;3556;53.500;10.176;2023-06-10T12:07:07;30.70;81.80
7030;DHT22;3556;53.500;10.176;2023-06-10T12:09:33;30.80;82.70
7030;DHT22;3556;53.500;10.176;2023-06-10T12:12:03;31.00;79.90
7030;DHT22;3556;53.500;10.176;2023-06-10T12:14:53;31.10;80.30
7030;DHT22;3556;53.500;10.176;2023-06-10T12:17:37;31.20;81.20
7030;DHT22;3556;53.500;10.176;2023-06-10T12:20:09;31.50;78.40
7030;DHT22;3556;53.500;10.176;2023-06-10T12:22:49;31.60;77.30
7030;DHT22;3556;53.500;10.176;2023-06-10T12:25:14;31.50;74.50
7030;DHT22;3556;53.500;10.176;2023-06-10T12:27:49;31.70;77.70
7030;DHT22;3556;53.500;10.176;2023-06-10T12:30:19;31.80;74.80
7030;DHT22;3556;53.500;10.176;2023-06-10T12:32:46;31.90;74.40
7030;DHT22;3556;53.500;10.176;2023-06-10T12:35:14;31.90;74.20
7030;DHT22;3556;53.500;10.176;2023-06-10T12:37:41;32.00;71.80
7030;DHT22;3556;53.500;10.176;2023-06-10T12:40:07;32.10;73.00
7030;DHT22;3556;53.500;10.176;2023-06-10T12:42:36;32.10;70.30
7030;DHT22;3556;53.500;10.176;2023-06-10T12:45:03;32.40;70.00
7030;DHT22;3556;53.500;10.176;2023-06-10T12:47:37;32.60;69.90
7030;DHT22;3556;53.500;10.176;2023-06-10T12:50:05;32.80;70.00
7030;DHT22;3556;53.500;10.176;2023-06-10T12:52:31;33.00;69.30
7030;DHT22;3556;53.500;10.176;2023-06-10T12:54:57;33.20;67.60
7030;DHT22;3556;53.500;10.176;2023-06-10T12:57:24;33.20;66.30
7030;DHT22;3556;53.500;10.176;2023-06-10T12:59:50;33.40;65.40
7030;DHT22;3556;53.500;10.176;2023-06-10T13:02:18;33.50;65.50
7030;DHT22;3556;53.500;10.176;2023-06-10T13:04:45;33.50;64.30
7030;DHT22;3556;53.500;10.176;2023-06-10T13:07:11;33.60;63.00
7030;DHT22;3556;53.500;10.176;2023-06-10T13:09:37;33.80;64.00
7030;DHT22;3556;53.500;10.176;2023-06-10T13:12:03;33.80;63.20
7030;DHT22;3556;53.500;10.176;2023-06-10T13:14:29;33.80;60.30
7030;DHT22;3556;53.500;10.176;2023-06-10T13:16:55;33.60;61.60
7030;DHT22;3556;53.500;10.176;2023-06-10T13:19:21;33.70;60.90
7030;DHT22;3556;53.500;10.176;2023-06-10T13:21:50;33.70;59.70
7030;DHT22;3556;53.500;10.176;2023-06-10T13:24:17;33.80;59.80
7030;DHT22;3556;53.500;10.176;2023-06-10T13:26:42;33.80;57.60
7030;DHT22;3556;53.500;10.176;2023-06-10T13:29:08;33.90;60.30
7030;DHT22;3556;53.500;10.176;2023-06-10T13:31:39;34.00;59.90
7030;DHT22;3556;53.500;10.176;2023-06-10T13:34:05;34.10;57.60
7030;DHT22;3556;53.500;10.176;2023-06-10T13:36:31;34.00;57.40
7030;DHT22;3556;53.500;10.176;2023-06-10T13:38:57;33.90;56.70
7030;DHT22;3556;53.500;10.176;2023-06-10T13:41:23;33.80;58.90
7030;DHT22;3556;53.500;10.176;2023-06-10T13:43:48;33.90;58.10
7030;DHT22;3556;53.500;10.176;2023-06-10T13:46:14;33.90;56.20
7030;DHT22;3556;53.500;10.176;2023-06-10T13:48:40;33.90;56.80
7030;DHT22;3556;53.500;10.176;2023-06-10T13:51:06;34.00;56.60
7030;DHT22;3556;53.500;10.176;2023-06-10T13:53:32;33.90;56.50
7030;DHT22;3556;53.500;10.176;2023-06-10T13:55:57;33.80;58.80
7030;DHT22;3556;53.500;10.176;2023-06-10T13:58:23;33.90;59.60
7030;DHT22;3556;53.500;10.176;2023-06-10T14:00:49;33.90;60.20
7030;DHT22;3556;53.500;10.176;2023-06-10T14:03:14;33.70;59.70
7030;DHT22;3556;53.500;10.176;2023-06-10T14:05:40;33.50;61.20
7030;DHT22;3556;53.500;10.176;2023-06-10T14:08:07;33.20;62.70
7030;DHT22;3556;53.500;10.176;2023-06-10T14:10:32;33.20;63.90
7030;DHT22;3556;53.500;10.176;2023-06-10T14:12:58;33.20;64.10
7030;DHT22;3556;53.500;10.176;2023-06-10T14:15:25;33.20;64.10
7030;DHT22;3556;53.500;10.176;2023-06-10T14:17:51;33.20;63.40
7030;DHT22;3556;53.500;10.176;2023-06-10T14:20:16;32.90;63.60
7030;DHT22;3556;53.500;10.176;2023-06-10T14:22:42;32.70;64.50
7030;DHT22;3556;53.500;10.176;2023-06-10T14:25:08;32.70;64.60
7030;DHT22;3556;53.500;10.176;2023-06-10T14:27:34;32.50;63.80
7030;DHT22;3556;53.500;10.176;2023-06-10T14:29:59;32.30;66.40
7030;DHT22;3556;53.500;10.176;2023-06-10T14:32:25;32.20;66.30
7030;DHT22;3556;53.500;10.176;2023-06-10T14:34:50;32.10;64.40
7030;DHT22;3556;53.500;10.176;2023-06-10T14:37:16;32.00;65.20
7030;DHT22;3556;53.500;10.176;2023-06-10T14:39:42;31.90;65.60
7030;DHT22;3556;53.500;10.176;2023-06-10T14:42:08;31.90;65.80
7030;DHT22;3556;53.500;10.176;2023-06-10T14:44:33;31.80;67.30
7030;DHT22;3556;53.500;10.176;2023-06-10T14:46:59;31.80;66.30
7030;DHT22;3556;53.500;10.176;2023-06-10T14:49:25;31.70;66.90
7030;DHT22;3556;53.500;10.176;2023-06-10T14:51:50;31.60;67.90
7030;DHT22;3556;53.500;10.176;2023-06-10T14:54:16;31.60;67.60
7030;DHT22;3556;53.500;10.176;2023-06-10T14:56:42;31.70;67.90
7030;DHT22;3556;53.500;10.176;2023-06-10T14:59:08;31.70;67.90
7030;DHT22;3556;53.500;10.176;2023-06-10T15:01:33;31.60;66.20
7030;DHT22;3556;53.500;10.176;2023-06-10T15:03:59;31.40;67.10
7030;DHT22;3556;53.500;10.176;2023-06-10T15:06:25;31.30;69.00
7030;DHT22;3556;53.500;10.176;2023-06-10T15:08:50;31.40;68.10
7030;DHT22;3556;53.500;10.176;2023-06-10T15:11:16;31.30;67.70
7030;DHT22;3556;53.500;10.176;2023-06-10T15:13:42;31.30;68.10
7030;DHT22;3556;53.500;10.176;2023-06-10T15:16:08;31.20;67.80
7030;DHT22;3556;53.500;10.176;2023-06-10T15:18:33;31.00;69.60
7030;DHT22;3556;53.500;10.176;2023-06-10T15:20:59;30.90;68.30
7030;DHT22;3556;53.500;10.176;2023-06-10T15:23:25;30.90;68.60
7030;DHT22;3556;53.500;10.176;2023-06-10T15:25:50;30.70;68.50
7030;DHT22;3556;53.500;10.176;2023-06-10T15:28:16;30.60;69.60
7030;DHT22;3556;53.500;10.176;2023-06-10T15:30:42;30.60;68.40
7030;DHT22;3556;53.500;10.176;2023-06-10T15:33:07;30.40;69.10
7030;DHT22;3556;53.500;10.176;2023-06-10T15:35:33;30.20;70.00
7030;DHT22;3556;53.500;10.176;2023-06-10T15:37:59;30.10;70.30
7030;DHT22;3556;53.500;10.176;2023-06-10T15:40:25;30.10;70.70
7030;DHT22;3556;53.500;10.176;2023-06-10T15:42:51;30.10;71.40
7030;DHT22;3556;53.500;10.176;2023-06-10T15:45:17;30.00;71.80
7030;DHT22;3556;53.500;10.176;2023-06-10T15:47:42;29.90;70.70
7030;DHT22;3556;53.500;10.176;2023-06-10T15:50:08;29.90;71.90
7030;DHT22;3556;53.500;10.176;2023-06-10T15:52:34;29.80;72.50
7030;DHT22;3556;53.500;10.176;2023-06-10T15:55:00;29.80;71.90
7030;DHT22;3556;53.500;10.176;2023-06-10T15:57:27;29.80;72.10
7030;DHT22;3556;53.500;10.176;2023-06-10T15:59:52;29.70;71.30